Flight Track Log - Related Links

Times and Time Zones

All times are in EDT time to prevent confusion due to time zone crossing. See the N109NT flight status page for this flight to view local times or setup timezone preferences in your user account.

Time Position Orientation Groundspeed Altitude Reporting Facility
EDT Latitude Longitude Course Direction KTS MPH feet Rate Location/Type
Tue 12:23:54 PM 32.6244 -82.5244 265° West 366 421 6,100  Level Atlanta Center
Tue 12:24:54 PM 32.6481 -82.5883 294° West 254 292 8,800 2,250 Climbing Atlanta Center
Tue 12:25:54 PM 32.6969 -82.6614 309° West 255 293 10,600 2,000 Climbing Atlanta Center
Tue 12:26:54 PM 32.7561 -82.7397 312° West 287 330 12,800 1,700 Climbing Atlanta Center
Tue 12:27:54 PM 32.8156 -82.8278 309° West 318 366 14,000 600 Climbing Atlanta Center
Tue 12:28:00 PM 32.5508 -82.8102 262° West  Level FlightAware Approximate
Tue 12:28:54 PM 32.8833 -82.9281 309° West 359 413 14,000  Level Atlanta Center
Tue 12:29:54 PM 32.9572 -83.0336 310° West 393 452 13,900 -50 Descending Atlanta Center
Tue 12:30:54 PM 33.0292 -83.1344 310° West 405 466 13,900 50 Level Atlanta Center
Tue 12:31:54 PM 33.1092 -83.2503 310° West 410 472 14,000 -50 Climbing Atlanta Center
Tue 12:32:54 PM 33.1767 -83.3514 309° West 410 472 13,800 -750 Descending Atlanta Center
Tue 12:33:54 PM 33.2481 -83.4550 310° West 404 465 12,500 -1,300 Descending Atlanta Center
Tue 12:34:54 PM 33.3153 -83.5542 309° West 393 452 11,200 -750 Descending Atlanta Center
Tue 12:35:54 PM 33.3678 -83.6383 307° West 377 434 11,000 -100 Descending Atlanta Center
Tue 12:36:54 PM 33.4306 -83.7028 319° Northwest 322 371 11,000 -50 Level Atlanta Center
Tue 12:37:54 PM 33.5017 -83.7597 326° Northwest 308 354 10,900 -900 Descending Atlanta Center
Tue 12:38:54 PM 33.5747 -83.7869 343° North 287 330 9,200 -1,450 Descending Atlanta Center
Tue 12:39:54 PM 33.6564 -83.8117 346° North 282 325 8,000 -1,100 Descending Atlanta Center
Tue 12:40:54 PM 33.7314 -83.8389 343° North 282 325 7,000 -1,000 Descending Atlanta Center
Tue 12:41:54 PM 33.7919 -83.8789 331° Northwest 260 299 6,000 -1,150 Descending Atlanta Center
Tue 12:42:54 PM 33.8400 -83.9264 321° Northwest 239 275 4,700 -1,000 Descending Atlanta Center
Tue 12:43:54 PM 33.8756 -83.9889 304° West 225 259 4,000 -520 Descending Atlanta Center
Tue 12:45:01 PM 33.9167 -84.0667 303° West 218 251 3,600 -496 Descending Atlanta TRACON
Tue 12:45:55 PM 33.9333 -84.1167 292° West 217 250 3,000 -522 Descending Atlanta TRACON
Tue 12:46:56 PM 33.9333 -84.1833 270° West 204 235 2,600 -446 Descending Atlanta TRACON
Tue 12:47:56 PM 33.9500 -84.2500 287° West 175 201 2,100 -500 Descending Atlanta TRACON
Tue 12:48:56 PM 33.9167 -84.2833 220° Southwest 164 189 1,600 -500 Descending Atlanta TRACON
Tue 12:50:00 PM 33.8756 -84.3020 220° Southwest  Level Estimated
Tue 12:57:00 PM 33.8756 -84.3020 220° Southwest  Level Estimated
Tue 12:58:00 PM 33.8756 -84.3020 220° Southwest  Level Estimated

Login

Don't have an account? Register now (free) for customized features, flight alerts, and more!